Aérodrome :
LOGIN :

S'inscrire | Disclaimer

   EN    FR    IT 

 










Légende :    VFR   VFR Marginal   IFR   IFR Intensif   IFR Très Intensif
Visi : 
Plafond : 
>= 8 km
>= 3000ft
5 à 8 km
1000 à 3000 ft
1500m à 5 km
500 à 1000 ft
800 à 1500m
200 à 500 ft
< 800m
< 200 ft
Symboles :   Orages  Brouillard  Fortes neiges  Fortes précipitations  Vent > 20 kt
SIGMETs :   Divers  Orages  Givrage  Turbulence  Onde Orograph.  Cendres Volcan.







- Altitude de l'aérodrome : 17 ft
- Code IATA : MPL
- Voir les cartes d'approche


LFMT - Montpellier Méditerranée

DERNIER METAR :
  • 172200Z AUTO 32005KT CAVOK 18/16 Q1015 TEMPO VRB15G25KT 1200 SHRA BR BKN010CB

METARs EXPIRÉS :
  • 172130Z AUTO 35004KT 9000 NSC 18/15 Q1015 TEMPO VRB15G25KT 1200 SHRA BR BKN010CB
  • 172100Z AUTO 33003KT 9999 -RA NSC 18/16 Q1015 TEMPO VRB15G25KT 1200 SHRA BR BKN006 BKN020TCU
  • 172030Z AUTO 00000KT 9999 -RA ///TCU 18/16 Q1015 TEMPO VRB15G25KT 1200 SHRA BR BKN006 BKN020TCU
  • 172000Z AUTO 09002KT 9999 -RA ///TCU 18/15 Q1015 TEMPO VRB15G25KT 1200 SHRA BR BKN006 BKN013TCU
  • 171930Z AUTO VRB02KT 9999 ///TCU 18/15 Q1015 TEMPO VRB15G25KT 1200 SHRA BR BKN006 BKN013TCU

TAF TAF LFMT
Valide du 17 à 21h jusqu'au 18 à 21h UTC


172000Z 1721/1821 VRB03KT 9999 BKN030
TEMPO 1721/1809 VRB15G25KT 1200 SHRA BR BKN006 BKN020TCU
PROB30
TEMPO 1723/1806 TSRA BKN010CB
BECMG 1806/1808 02006KT
ATIS : +33 4 67 13 11 70
Pas de NOTAMs connus pour ce terrain.



MET'MAP, la Météo Aéronautique d'un coup d'oeil ! - Copyright ORBIFLY Décembre 2007 - Disclaimer

ORBIFLY MET'MAP TEAM :

Programmation & Développement : Alexandra Zaïnal
Conception & Développement : Baudouin d'Aumeries
Co-Programmation & Développement : Marc-Olivier Méhu
Soutien technique & logistique : Manuel Goepfert

Contact : metmap@orbifly.com




SOURCES & CREDITS :

   NOAA